sensor_id;sensor_type;location;lat;lon;timestamp;temperature;humidity
39237;DHT22;36851;49.996;8.268;2022-07-09T00:01:47;25.40;89.20
39237;DHT22;36851;49.996;8.268;2022-07-09T00:04:14;25.40;89.20
39237;DHT22;36851;49.996;8.268;2022-07-09T00:06:41;25.40;89.20
39237;DHT22;36851;49.996;8.268;2022-07-09T00:09:08;25.40;89.20
39237;DHT22;36851;49.996;8.268;2022-07-09T00:11:35;25.30;89.10
39237;DHT22;36851;49.996;8.268;2022-07-09T00:14:02;25.40;89.20
39237;DHT22;36851;49.996;8.268;2022-07-09T00:16:30;25.40;89.20
39237;DHT22;36851;49.996;8.268;2022-07-09T00:18:57;25.30;89.10
39237;DHT22;36851;49.996;8.268;2022-07-09T00:21:24;25.40;89.20
39237;DHT22;36851;49.996;8.268;2022-07-09T00:23:51;25.30;89.10
39237;DHT22;36851;49.996;8.268;2022-07-09T00:26:18;25.30;89.20
39237;DHT22;36851;49.996;8.268;2022-07-09T00:28:46;25.30;89.20
39237;DHT22;36851;49.996;8.268;2022-07-09T00:31:13;25.30;89.20
39237;DHT22;36851;49.996;8.268;2022-07-09T00:33:40;25.30;89.20
39237;DHT22;36851;49.996;8.268;2022-07-09T00:36:07;25.30;89.20
39237;DHT22;36851;49.996;8.268;2022-07-09T00:38:34;25.30;89.20
39237;DHT22;36851;49.996;8.268;2022-07-09T00:41:03;25.30;89.20
39237;DHT22;36851;49.996;8.268;2022-07-09T00:43:30;25.30;89.20
39237;DHT22;36851;49.996;8.268;2022-07-09T00:45:57;25.30;89.30
39237;DHT22;36851;49.996;8.268;2022-07-09T00:48:25;25.30;89.30
39237;DHT22;36851;49.996;8.268;2022-07-09T00:50:52;25.30;89.20
39237;DHT22;36851;49.996;8.268;2022-07-09T00:53:21;25.30;89.30
39237;DHT22;36851;49.996;8.268;2022-07-09T00:55:49;25.20;89.20
39237;DHT22;36851;49.996;8.268;2022-07-09T00:58:16;25.30;89.30
39237;DHT22;36851;49.996;8.268;2022-07-09T01:00:44;25.20;89.20
39237;DHT22;36851;49.996;8.268;2022-07-09T01:03:12;25.20;89.20
39237;DHT22;36851;49.996;8.268;2022-07-09T01:05:39;25.20;89.20
39237;DHT22;36851;49.996;8.268;2022-07-09T01:08:07;25.20;89.20
39237;DHT22;36851;49.996;8.268;2022-07-09T01:10:35;25.30;89.30
39237;DHT22;36851;49.996;8.268;2022-07-09T01:13:03;25.20;89.20
39237;DHT22;36851;49.996;8.268;2022-07-09T01:15:31;25.20;89.20
39237;DHT22;36851;49.996;8.268;2022-07-09T01:17:58;25.30;89.20
39237;DHT22;36851;49.996;8.268;2022-07-09T01:20:26;25.20;89.20
39237;DHT22;36851;49.996;8.268;2022-07-09T01:22:55;25.20;89.20
39237;DHT22;36851;49.996;8.268;2022-07-09T01:25:31;25.20;89.20
39237;DHT22;36851;49.996;8.268;2022-07-09T01:27:58;25.20;89.20
39237;DHT22;36851;49.996;8.268;2022-07-09T01:30:26;25.20;89.20
39237;DHT22;36851;49.996;8.268;2022-07-09T01:32:53;25.20;89.20
39237;DHT22;36851;49.996;8.268;2022-07-09T01:35:21;25.20;89.30
39237;DHT22;36851;49.996;8.268;2022-07-09T01:37:48;25.20;89.30
39237;DHT22;36851;49.996;8.268;2022-07-09T01:40:16;25.20;89.20
39237;DHT22;36851;49.996;8.268;2022-07-09T01:42:43;25.20;89.30
39237;DHT22;36851;49.996;8.268;2022-07-09T01:45:10;25.20;89.30
39237;DHT22;36851;49.996;8.268;2022-07-09T01:47:37;25.20;89.30
39237;DHT22;36851;49.996;8.268;2022-07-09T01:50:05;25.20;89.30
39237;DHT22;36851;49.996;8.268;2022-07-09T01:52:32;25.20;89.30
39237;DHT22;36851;49.996;8.268;2022-07-09T01:54:59;25.20;89.30
39237;DHT22;36851;49.996;8.268;2022-07-09T01:57:27;25.20;89.30
39237;DHT22;36851;49.996;8.268;2022-07-09T01:59:54;25.20;89.40
39237;DHT22;36851;49.996;8.268;2022-07-09T02:02:21;25.20;89.40
39237;DHT22;36851;49.996;8.268;2022-07-09T02:04:48;25.20;89.40
39237;DHT22;36851;49.996;8.268;2022-07-09T02:07:15;25.20;89.30
39237;DHT22;36851;49.996;8.268;2022-07-09T02:09:43;25.20;89.40
39237;DHT22;36851;49.996;8.268;2022-07-09T02:12:10;25.20;89.40
39237;DHT22;36851;49.996;8.268;2022-07-09T02:14:37;25.20;89.40
39237;DHT22;36851;49.996;8.268;2022-07-09T02:17:05;25.20;89.40
39237;DHT22;36851;49.996;8.268;2022-07-09T02:19:32;25.20;89.40
39237;DHT22;36851;49.996;8.268;2022-07-09T02:21:59;25.20;89.40
39237;DHT22;36851;49.996;8.268;2022-07-09T02:24:27;25.10;89.30
39237;DHT22;36851;49.996;8.268;2022-07-09T02:26:55;25.20;89.40
39237;DHT22;36851;49.996;8.268;2022-07-09T02:29:22;25.10;89.40
39237;DHT22;36851;49.996;8.268;2022-07-09T02:31:49;25.10;89.30
39237;DHT22;36851;49.996;8.268;2022-07-09T02:34:16;25.10;89.30
39237;DHT22;36851;49.996;8.268;2022-07-09T02:36:43;25.10;89.40
39237;DHT22;36851;49.996;8.268;2022-07-09T02:39:11;25.10;89.40
39237;DHT22;36851;49.996;8.268;2022-07-09T02:41:38;25.10;89.40
39237;DHT22;36851;49.996;8.268;2022-07-09T02:44:05;25.10;89.40
39237;DHT22;36851;49.996;8.268;2022-07-09T02:46:32;25.10;89.40
39237;DHT22;36851;49.996;8.268;2022-07-09T02:49:00;25.10;89.40
39237;DHT22;36851;49.996;8.268;2022-07-09T02:51:27;25.10;89.40
39237;DHT22;36851;49.996;8.268;2022-07-09T02:53:54;25.10;89.40
39237;DHT22;36851;49.996;8.268;2022-07-09T02:56:21;25.10;89.40
39237;DHT22;36851;49.996;8.268;2022-07-09T02:58:48;25.10;89.40
39237;DHT22;36851;49.996;8.268;2022-07-09T03:01:15;25.00;89.40
39237;DHT22;36851;49.996;8.268;2022-07-09T03:03:43;25.10;89.50
39237;DHT22;36851;49.996;8.268;2022-07-09T03:06:10;25.10;89.50
39237;DHT22;36851;49.996;8.268;2022-07-09T03:08:37;25.00;89.40
39237;DHT22;36851;49.996;8.268;2022-07-09T03:11:05;25.10;89.50
39237;DHT22;36851;49.996;8.268;2022-07-09T03:13:33;25.00;89.40
39237;DHT22;36851;49.996;8.268;2022-07-09T03:16:01;25.10;89.50
39237;DHT22;36851;49.996;8.268;2022-07-09T03:18:28;25.00;89.40
39237;DHT22;36851;49.996;8.268;2022-07-09T03:20:56;25.00;89.40
39237;DHT22;36851;49.996;8.268;2022-07-09T03:23:23;25.00;89.50
39237;DHT22;36851;49.996;8.268;2022-07-09T03:25:50;25.00;89.50
39237;DHT22;36851;49.996;8.268;2022-07-09T03:28:17;25.00;89.50
39237;DHT22;36851;49.996;8.268;2022-07-09T03:30:45;25.00;89.50
39237;DHT22;36851;49.996;8.268;2022-07-09T03:33:13;25.00;89.50
39237;DHT22;36851;49.996;8.268;2022-07-09T03:35:40;25.00;89.50
39237;DHT22;36851;49.996;8.268;2022-07-09T03:38:07;25.00;89.50
39237;DHT22;36851;49.996;8.268;2022-07-09T03:40:34;25.00;89.50
39237;DHT22;36851;49.996;8.268;2022-07-09T03:43:01;25.00;89.50
39237;DHT22;36851;49.996;8.268;2022-07-09T03:45:29;25.00;89.50
39237;DHT22;36851;49.996;8.268;2022-07-09T03:47:56;25.00;89.50
39237;DHT22;36851;49.996;8.268;2022-07-09T03:50:23;25.00;89.50
39237;DHT22;36851;49.996;8.268;2022-07-09T03:52:50;25.00;89.50
39237;DHT22;36851;49.996;8.268;2022-07-09T03:55:17;25.00;89.50
39237;DHT22;36851;49.996;8.268;2022-07-09T03:57:45;25.00;89.50
39237;DHT22;36851;49.996;8.268;2022-07-09T04:00:12;25.00;89.50
39237;DHT22;36851;49.996;8.268;2022-07-09T04:02:39;25.00;89.50
39237;DHT22;36851;49.996;8.268;2022-07-09T04:05:07;25.00;89.60
39237;DHT22;36851;49.996;8.268;2022-07-09T04:07:34;24.90;89.50
39237;DHT22;36851;49.996;8.268;2022-07-09T04:10:02;25.00;89.60
39237;DHT22;36851;49.996;8.268;2022-07-09T04:12:29;25.00;89.60
39237;DHT22;36851;49.996;8.268;2022-07-09T04:14:56;25.00;89.60
39237;DHT22;36851;49.996;8.268;2022-07-09T04:17:23;24.90;89.60
39237;DHT22;36851;49.996;8.268;2022-07-09T04:19:50;25.00;89.60
39237;DHT22;36851;49.996;8.268;2022-07-09T04:22:18;24.90;89.60
39237;DHT22;36851;49.996;8.268;2022-07-09T04:24:45;24.90;89.60
39237;DHT22;36851;49.996;8.268;2022-07-09T04:27:12;24.90;89.60
39237;DHT22;36851;49.996;8.268;2022-07-09T04:29:39;24.90;89.60
39237;DHT22;36851;49.996;8.268;2022-07-09T04:32:06;24.90;89.60
39237;DHT22;36851;49.996;8.268;2022-07-09T04:34:34;24.90;89.60
39237;DHT22;36851;49.996;8.268;2022-07-09T04:37:01;24.90;89.60
39237;DHT22;36851;49.996;8.268;2022-07-09T04:39:28;24.90;89.60
39237;DHT22;36851;49.996;8.268;2022-07-09T04:41:55;24.90;89.60
39237;DHT22;36851;49.996;8.268;2022-07-09T04:44:22;24.90;89.60
39237;DHT22;36851;49.996;8.268;2022-07-09T04:46:50;24.90;89.50
39237;DHT22;36851;49.996;8.268;2022-07-09T04:49:17;24.90;89.60
39237;DHT22;36851;49.996;8.268;2022-07-09T04:51:44;24.90;89.60
39237;DHT22;36851;49.996;8.268;2022-07-09T04:54:11;24.90;89.60
39237;DHT22;36851;49.996;8.268;2022-07-09T04:56:38;24.90;89.60
39237;DHT22;36851;49.996;8.268;2022-07-09T04:59:05;24.90;89.70
39237;DHT22;36851;49.996;8.268;2022-07-09T05:01:33;24.90;89.60
39237;DHT22;36851;49.996;8.268;2022-07-09T05:04:00;24.90;89.60
39237;DHT22;36851;49.996;8.268;2022-07-09T05:06:27;24.90;89.60
39237;DHT22;36851;49.996;8.268;2022-07-09T05:08:54;24.90;89.70
39237;DHT22;36851;49.996;8.268;2022-07-09T05:11:21;24.90;89.80
39237;DHT22;36851;49.996;8.268;2022-07-09T05:13:48;24.90;89.70
39237;DHT22;36851;49.996;8.268;2022-07-09T05:16:16;24.90;89.80
39237;DHT22;36851;49.996;8.268;2022-07-09T05:18:43;24.90;89.70
39237;DHT22;36851;49.996;8.268;2022-07-09T05:21:10;24.90;89.80
39237;DHT22;36851;49.996;8.268;2022-07-09T05:23:37;24.90;89.80
39237;DHT22;36851;49.996;8.268;2022-07-09T05:26:04;24.80;89.70
39237;DHT22;36851;49.996;8.268;2022-07-09T05:28:32;24.90;89.80
39237;DHT22;36851;49.996;8.268;2022-07-09T05:30:59;24.90;89.80
39237;DHT22;36851;49.996;8.268;2022-07-09T05:33:46;24.90;89.80
39237;DHT22;36851;49.996;8.268;2022-07-09T05:36:17;24.90;89.80
39237;DHT22;36851;49.996;8.268;2022-07-09T05:38:45;24.90;89.80
39237;DHT22;36851;49.996;8.268;2022-07-09T05:41:12;24.90;89.80
39237;DHT22;36851;49.996;8.268;2022-07-09T05:43:41;24.90;89.80
39237;DHT22;36851;49.996;8.268;2022-07-09T05:46:08;24.90;89.80
39237;DHT22;36851;49.996;8.268;2022-07-09T05:48:36;24.90;89.80
39237;DHT22;36851;49.996;8.268;2022-07-09T05:51:04;24.90;89.80
39237;DHT22;36851;49.996;8.268;2022-07-09T05:53:31;24.90;89.80
39237;DHT22;36851;49.996;8.268;2022-07-09T05:55:58;24.90;89.80
39237;DHT22;36851;49.996;8.268;2022-07-09T05:58:25;24.90;89.70
39237;DHT22;36851;49.996;8.268;2022-07-09T06:00:53;24.90;89.80
39237;DHT22;36851;49.996;8.268;2022-07-09T06:03:20;24.90;89.70
39237;DHT22;36851;49.996;8.268;2022-07-09T06:05:47;24.90;89.80
39237;DHT22;36851;49.996;8.268;2022-07-09T06:08:14;24.90;89.80
39237;DHT22;36851;49.996;8.268;2022-07-09T06:10:41;24.90;89.80
39237;DHT22;36851;49.996;8.268;2022-07-09T06:13:09;25.00;89.80
39237;DHT22;36851;49.996;8.268;2022-07-09T06:15:36;25.00;89.70
39237;DHT22;36851;49.996;8.268;2022-07-09T06:18:03;25.00;89.70
39237;DHT22;36851;49.996;8.268;2022-07-09T06:20:30;25.00;89.70
39237;DHT22;36851;49.996;8.268;2022-07-09T06:23:05;24.90;89.60
39237;DHT22;36851;49.996;8.268;2022-07-09T06:25:33;25.00;89.70
39237;DHT22;36851;49.996;8.268;2022-07-09T06:28:00;25.00;90.00
39237;DHT22;36851;49.996;8.268;2022-07-09T06:30:27;25.00;89.70
39237;DHT22;36851;49.996;8.268;2022-07-09T06:32:54;25.00;89.80
39237;DHT22;36851;49.996;8.268;2022-07-09T06:35:21;24.90;89.80
39237;DHT22;36851;49.996;8.268;2022-07-09T06:37:49;24.90;89.80
39237;DHT22;36851;49.996;8.268;2022-07-09T06:40:16;24.90;89.80
39237;DHT22;36851;49.996;8.268;2022-07-09T06:42:43;24.90;89.80
39237;DHT22;36851;49.996;8.268;2022-07-09T06:45:19;24.90;89.80
39237;DHT22;36851;49.996;8.268;2022-07-09T06:47:46;24.90;89.90
39237;DHT22;36851;49.996;8.268;2022-07-09T06:50:13;24.90;89.90
39237;DHT22;36851;49.996;8.268;2022-07-09T06:52:40;24.90;89.80
39237;DHT22;36851;49.996;8.268;2022-07-09T06:55:08;24.90;89.90
39237;DHT22;36851;49.996;8.268;2022-07-09T06:57:35;24.90;89.90
39237;DHT22;36851;49.996;8.268;2022-07-09T07:00:04;24.90;90.00
39237;DHT22;36851;49.996;8.268;2022-07-09T07:02:32;24.90;90.00
39237;DHT22;36851;49.996;8.268;2022-07-09T07:04:59;24.90;90.00
39237;DHT22;36851;49.996;8.268;2022-07-09T07:07:26;24.90;90.00
39237;DHT22;36851;49.996;8.268;2022-07-09T07:09:53;25.00;90.00
39237;DHT22;36851;49.996;8.268;2022-07-09T07:12:20;25.00;90.00
39237;DHT22;36851;49.996;8.268;2022-07-09T07:14:47;25.00;90.00
39237;DHT22;36851;49.996;8.268;2022-07-09T07:17:14;25.00;90.00
39237;DHT22;36851;49.996;8.268;2022-07-09T07:19:42;25.00;90.00
39237;DHT22;36851;49.996;8.268;2022-07-09T07:22:09;25.00;90.00
39237;DHT22;36851;49.996;8.268;2022-07-09T07:24:36;25.00;90.00
39237;DHT22;36851;49.996;8.268;2022-07-09T07:27:03;25.00;90.00
39237;DHT22;36851;49.996;8.268;2022-07-09T07:29:30;25.00;90.00
39237;DHT22;36851;49.996;8.268;2022-07-09T07:31:57;25.00;90.00
39237;DHT22;36851;49.996;8.268;2022-07-09T07:34:25;25.00;90.00
39237;DHT22;36851;49.996;8.268;2022-07-09T07:36:53;25.00;90.00
39237;DHT22;36851;49.996;8.268;2022-07-09T07:39:20;25.00;90.00
39237;DHT22;36851;49.996;8.268;2022-07-09T07:41:51;25.00;90.00
39237;DHT22;36851;49.996;8.268;2022-07-09T07:44:19;25.00;90.00
39237;DHT22;36851;49.996;8.268;2022-07-09T07:46:46;25.00;90.10
39237;DHT22;36851;49.996;8.268;2022-07-09T07:49:13;25.00;90.00
39237;DHT22;36851;49.996;8.268;2022-07-09T07:51:40;25.00;90.10
39237;DHT22;36851;49.996;8.268;2022-07-09T07:54:09;25.00;90.10
39237;DHT22;36851;49.996;8.268;2022-07-09T07:56:36;25.00;90.10
39237;DHT22;36851;49.996;8.268;2022-07-09T07:59:06;25.00;90.10
39237;DHT22;36851;49.996;8.268;2022-07-09T08:01:34;25.00;90.10
39237;DHT22;36851;49.996;8.268;2022-07-09T08:04:02;25.00;90.10
39237;DHT22;36851;49.996;8.268;2022-07-09T08:06:29;25.00;90.10
39237;DHT22;36851;49.996;8.268;2022-07-09T08:08:56;25.00;90.10
39237;DHT22;36851;49.996;8.268;2022-07-09T08:11:24;25.10;90.10
39237;DHT22;36851;49.996;8.268;2022-07-09T08:13:51;25.00;90.10
39237;DHT22;36851;49.996;8.268;2022-07-09T08:16:18;25.00;90.10
39237;DHT22;36851;49.996;8.268;2022-07-09T08:18:47;25.00;90.40
39237;DHT22;36851;49.996;8.268;2022-07-09T08:21:14;25.00;90.20
39237;DHT22;36851;49.996;8.268;2022-07-09T08:23:42;25.00;90.20
39237;DHT22;36851;49.996;8.268;2022-07-09T08:26:22;25.00;90.20
39237;DHT22;36851;49.996;8.268;2022-07-09T08:28:50;25.00;90.20
39237;DHT22;36851;49.996;8.268;2022-07-09T08:31:17;25.00;90.20
39237;DHT22;36851;49.996;8.268;2022-07-09T08:33:45;25.00;90.20
39237;DHT22;36851;49.996;8.268;2022-07-09T08:36:13;25.00;90.20
39237;DHT22;36851;49.996;8.268;2022-07-09T08:38:40;25.00;90.20
39237;DHT22;36851;49.996;8.268;2022-07-09T08:41:07;25.00;90.20
39237;DHT22;36851;49.996;8.268;2022-07-09T08:43:35;25.00;90.20
39237;DHT22;36851;49.996;8.268;2022-07-09T08:46:03;25.00;90.20
39237;DHT22;36851;49.996;8.268;2022-07-09T08:48:32;25.00;90.20
39237;DHT22;36851;49.996;8.268;2022-07-09T08:51:01;25.00;90.20
39237;DHT22;36851;49.996;8.268;2022-07-09T08:53:28;25.00;90.20
39237;DHT22;36851;49.996;8.268;2022-07-09T08:55:56;25.00;90.20
39237;DHT22;36851;49.996;8.268;2022-07-09T08:58:24;25.00;90.20
39237;DHT22;36851;49.996;8.268;2022-07-09T09:00:51;25.00;90.20
39237;DHT22;36851;49.996;8.268;2022-07-09T09:03:19;25.00;90.20
39237;DHT22;36851;49.996;8.268;2022-07-09T09:05:59;25.00;90.20
39237;DHT22;36851;49.996;8.268;2022-07-09T09:08:27;25.00;90.20
39237;DHT22;36851;49.996;8.268;2022-07-09T09:10:54;25.00;90.10
39237;DHT22;36851;49.996;8.268;2022-07-09T09:13:21;25.10;90.20
39237;DHT22;36851;49.996;8.268;2022-07-09T09:15:48;25.10;90.10
39237;DHT22;36851;49.996;8.268;2022-07-09T09:18:15;25.00;90.10
39237;DHT22;36851;49.996;8.268;2022-07-09T09:20:46;25.10;90.10
39237;DHT22;36851;49.996;8.268;2022-07-09T09:23:16;25.00;90.10
39237;DHT22;36851;49.996;8.268;2022-07-09T09:25:44;25.10;90.10
39237;DHT22;36851;49.996;8.268;2022-07-09T09:28:11;25.10;90.10
39237;DHT22;36851;49.996;8.268;2022-07-09T09:30:42;25.10;90.10
39237;DHT22;36851;49.996;8.268;2022-07-09T09:33:13;25.10;90.10
39237;DHT22;36851;49.996;8.268;2022-07-09T09:35:42;25.10;90.10
39237;DHT22;36851;49.996;8.268;2022-07-09T09:38:09;25.00;90.10
39237;DHT22;36851;49.996;8.268;2022-07-09T09:40:36;25.10;90.10
39237;DHT22;36851;49.996;8.268;2022-07-09T09:43:04;25.10;90.10
39237;DHT22;36851;49.996;8.268;2022-07-09T09:45:32;25.10;90.10
39237;DHT22;36851;49.996;8.268;2022-07-09T09:47:59;25.10;90.10
39237;DHT22;36851;49.996;8.268;2022-07-09T09:50:27;25.20;90.10
39237;DHT22;36851;49.996;8.268;2022-07-09T09:52:55;25.10;90.10
39237;DHT22;36851;49.996;8.268;2022-07-09T09:55:22;25.10;90.10
39237;DHT22;36851;49.996;8.268;2022-07-09T09:57:50;25.10;90.10
39237;DHT22;36851;49.996;8.268;2022-07-09T10:00:19;25.10;90.10
39237;DHT22;36851;49.996;8.268;2022-07-09T10:02:47;25.10;90.10
39237;DHT22;36851;49.996;8.268;2022-07-09T10:05:14;25.10;90.10
39237;DHT22;36851;49.996;8.268;2022-07-09T10:07:41;25.10;90.10
39237;DHT22;36851;49.996;8.268;2022-07-09T10:10:16;25.10;90.10
39237;DHT22;36851;49.996;8.268;2022-07-09T10:12:44;25.20;90.10
39237;DHT22;36851;49.996;8.268;2022-07-09T10:15:21;25.20;90.10
39237;DHT22;36851;49.996;8.268;2022-07-09T10:17:49;25.10;90.10
39237;DHT22;36851;49.996;8.268;2022-07-09T10:20:16;25.10;90.10
39237;DHT22;36851;49.996;8.268;2022-07-09T10:22:44;25.20;90.10
39237;DHT22;36851;49.996;8.268;2022-07-09T10:25:12;25.10;90.10
39237;DHT22;36851;49.996;8.268;2022-07-09T10:27:44;25.10;90.10
39237;DHT22;36851;49.996;8.268;2022-07-09T10:30:25;25.10;90.10
39237;DHT22;36851;49.996;8.268;2022-07-09T10:33:03;25.20;90.20
39237;DHT22;36851;49.996;8.268;2022-07-09T10:35:30;25.10;90.10
39237;DHT22;36851;49.996;8.268;2022-07-09T10:37:57;25.10;90.10
39237;DHT22;36851;49.996;8.268;2022-07-09T10:40:25;25.20;90.20
39237;DHT22;36851;49.996;8.268;2022-07-09T10:42:58;25.20;90.20
39237;DHT22;36851;49.996;8.268;2022-07-09T10:45:26;25.20;90.20
39237;DHT22;36851;49.996;8.268;2022-07-09T10:47:55;25.20;90.20
39237;DHT22;36851;49.996;8.268;2022-07-09T10:50:23;25.20;90.10
39237;DHT22;36851;49.996;8.268;2022-07-09T10:52:50;25.10;90.10
39237;DHT22;36851;49.996;8.268;2022-07-09T10:55:22;25.20;90.10
39237;DHT22;36851;49.996;8.268;2022-07-09T10:57:49;25.20;90.20
39237;DHT22;36851;49.996;8.268;2022-07-09T11:00:17;25.20;90.20
39237;DHT22;36851;49.996;8.268;2022-07-09T11:02:52;25.20;90.20
39237;DHT22;36851;49.996;8.268;2022-07-09T11:05:19;25.20;90.20
39237;DHT22;36851;49.996;8.268;2022-07-09T11:10:29;25.20;90.20
39237;DHT22;36851;49.996;8.268;2022-07-09T11:12:57;25.20;90.20
39237;DHT22;36851;49.996;8.268;2022-07-09T11:15:29;25.20;90.20
39237;DHT22;36851;49.996;8.268;2022-07-09T11:17:59;25.20;90.20
39237;DHT22;36851;49.996;8.268;2022-07-09T11:20:27;25.20;90.20
39237;DHT22;36851;49.996;8.268;2022-07-09T11:22:55;25.20;90.20
39237;DHT22;36851;49.996;8.268;2022-07-09T11:25:24;25.20;90.20
39237;DHT22;36851;49.996;8.268;2022-07-09T11:27:54;25.20;90.10
39237;DHT22;36851;49.996;8.268;2022-07-09T11:30:22;25.20;90.10
39237;DHT22;36851;49.996;8.268;2022-07-09T11:32:49;25.20;90.10
39237;DHT22;36851;49.996;8.268;2022-07-09T11:35:33;25.20;90.10
39237;DHT22;36851;49.996;8.268;2022-07-09T11:38:02;25.20;90.10
39237;DHT22;36851;49.996;8.268;2022-07-09T11:40:30;25.30;90.10
39237;DHT22;36851;49.996;8.268;2022-07-09T11:42:57;25.20;90.10
39237;DHT22;36851;49.996;8.268;2022-07-09T11:45:26;25.30;90.20
39237;DHT22;36851;49.996;8.268;2022-07-09T11:50:30;25.20;90.20
39237;DHT22;36851;49.996;8.268;2022-07-09T11:52:57;25.20;90.20
39237;DHT22;36851;49.996;8.268;2022-07-09T11:55:29;25.20;90.10
39237;DHT22;36851;49.996;8.268;2022-07-09T11:58:06;25.30;90.20
39237;DHT22;36851;49.996;8.268;2022-07-09T12:00:39;25.20;90.20
39237;DHT22;36851;49.996;8.268;2022-07-09T12:03:06;25.20;90.20
39237;DHT22;36851;49.996;8.268;2022-07-09T12:05:34;25.20;90.20
39237;DHT22;36851;49.996;8.268;2022-07-09T12:08:07;25.30;90.20
39237;DHT22;36851;49.996;8.268;2022-07-09T12:10:35;25.20;90.20
39237;DHT22;36851;49.996;8.268;2022-07-09T12:13:03;25.20;90.20
39237;DHT22;36851;49.996;8.268;2022-07-09T12:15:30;25.20;90.30
39237;DHT22;36851;49.996;8.268;2022-07-09T12:17:59;25.20;90.30
39237;DHT22;36851;49.996;8.268;2022-07-09T12:20:27;25.20;90.30
39237;DHT22;36851;49.996;8.268;2022-07-09T12:22:55;25.20;90.20
39237;DHT22;36851;49.996;8.268;2022-07-09T12:25:22;25.20;90.20
39237;DHT22;36851;49.996;8.268;2022-07-09T12:27:50;25.20;90.20
39237;DHT22;36851;49.996;8.268;2022-07-09T12:30:17;25.30;90.20
39237;DHT22;36851;49.996;8.268;2022-07-09T12:32:44;25.30;90.20
39237;DHT22;36851;49.996;8.268;2022-07-09T12:35:12;25.30;90.20
39237;DHT22;36851;49.996;8.268;2022-07-09T12:37:39;25.30;90.10
39237;DHT22;36851;49.996;8.268;2022-07-09T12:40:07;25.30;90.10
39237;DHT22;36851;49.996;8.268;2022-07-09T12:42:34;25.40;90.20
39237;DHT22;36851;49.996;8.268;2022-07-09T12:45:02;25.40;90.10
39237;DHT22;36851;49.996;8.268;2022-07-09T12:47:36;25.40;90.10
39237;DHT22;36851;49.996;8.268;2022-07-09T12:50:04;25.40;90.10
39237;DHT22;36851;49.996;8.268;2022-07-09T12:52:32;25.40;90.10
39237;DHT22;36851;49.996;8.268;2022-07-09T12:55:00;25.40;90.10
39237;DHT22;36851;49.996;8.268;2022-07-09T12:57:27;25.40;90.10
39237;DHT22;36851;49.996;8.268;2022-07-09T12:59:55;25.40;90.10
39237;DHT22;36851;49.996;8.268;2022-07-09T13:02:22;25.40;90.10
39237;DHT22;36851;49.996;8.268;2022-07-09T13:04:52;25.40;90.10
39237;DHT22;36851;49.996;8.268;2022-07-09T13:07:19;25.40;90.00
39237;DHT22;36851;49.996;8.268;2022-07-09T13:09:46;25.40;90.00
39237;DHT22;36851;49.996;8.268;2022-07-09T13:12:13;25.50;90.00
39237;DHT22;36851;49.996;8.268;2022-07-09T13:14:41;25.50;90.00
39237;DHT22;36851;49.996;8.268;2022-07-09T13:17:08;25.50;90.00
39237;DHT22;36851;49.996;8.268;2022-07-09T13:19:55;25.50;90.00
39237;DHT22;36851;49.996;8.268;2022-07-09T13:22:23;25.50;90.00
39237;DHT22;36851;49.996;8.268;2022-07-09T13:24:50;25.50;90.00
39237;DHT22;36851;49.996;8.268;2022-07-09T13:27:17;25.50;90.00
39237;DHT22;36851;49.996;8.268;2022-07-09T13:29:46;25.50;90.00
39237;DHT22;36851;49.996;8.268;2022-07-09T13:32:14;25.40;90.00
39237;DHT22;36851;49.996;8.268;2022-07-09T13:34:51;25.40;90.10
39237;DHT22;36851;49.996;8.268;2022-07-09T13:37:19;25.40;90.10
39237;DHT22;36851;49.996;8.268;2022-07-09T13:39:46;25.40;90.10
39237;DHT22;36851;49.996;8.268;2022-07-09T13:42:13;25.50;90.10
39237;DHT22;36851;49.996;8.268;2022-07-09T13:44:41;25.50;90.00
39237;DHT22;36851;49.996;8.268;2022-07-09T13:47:08;25.60;90.00
39237;DHT22;36851;49.996;8.268;2022-07-09T13:49:35;25.60;90.00
39237;DHT22;36851;49.996;8.268;2022-07-09T13:52:02;25.60;89.90
39237;DHT22;36851;49.996;8.268;2022-07-09T13:54:29;25.60;89.90
39237;DHT22;36851;49.996;8.268;2022-07-09T13:56:57;25.60;89.90
39237;DHT22;36851;49.996;8.268;2022-07-09T13:59:24;25.60;89.90
39237;DHT22;36851;49.996;8.268;2022-07-09T14:01:51;25.60;89.90
39237;DHT22;36851;49.996;8.268;2022-07-09T14:04:18;25.50;90.00
39237;DHT22;36851;49.996;8.268;2022-07-09T14:06:46;25.50;90.00
39237;DHT22;36851;49.996;8.268;2022-07-09T14:09:15;25.50;90.00
39237;DHT22;36851;49.996;8.268;2022-07-09T14:11:47;25.50;90.00
39237;DHT22;36851;49.996;8.268;2022-07-09T14:14:14;25.50;90.00
39237;DHT22;36851;49.996;8.268;2022-07-09T14:16:41;25.50;90.10
39237;DHT22;36851;49.996;8.268;2022-07-09T14:19:09;25.50;90.10
39237;DHT22;36851;49.996;8.268;2022-07-09T14:21:36;25.50;90.00
39237;DHT22;36851;49.996;8.268;2022-07-09T14:24:11;25.50;90.00
39237;DHT22;36851;49.996;8.268;2022-07-09T14:26:38;25.50;90.10
39237;DHT22;36851;49.996;8.268;2022-07-09T14:29:07;25.50;89.90
39237;DHT22;36851;49.996;8.268;2022-07-09T14:31:34;25.50;89.90
39237;DHT22;36851;49.996;8.268;2022-07-09T14:34:01;25.60;90.00
39237;DHT22;36851;49.996;8.268;2022-07-09T14:36:28;25.50;89.90
39237;DHT22;36851;49.996;8.268;2022-07-09T14:38:56;25.50;90.00
39237;DHT22;36851;49.996;8.268;2022-07-09T14:41:23;25.50;90.00
39237;DHT22;36851;49.996;8.268;2022-07-09T14:43:50;25.50;90.00
39237;DHT22;36851;49.996;8.268;2022-07-09T14:46:17;25.50;90.00
39237;DHT22;36851;49.996;8.268;2022-07-09T14:48:44;25.50;90.00
39237;DHT22;36851;49.996;8.268;2022-07-09T14:51:11;25.50;90.00
39237;DHT22;36851;49.996;8.268;2022-07-09T14:53:39;25.60;89.90
39237;DHT22;36851;49.996;8.268;2022-07-09T14:56:10;25.60;89.70
39237;DHT22;36851;49.996;8.268;2022-07-09T14:58:37;25.70;89.60
39237;DHT22;36851;49.996;8.268;2022-07-09T15:01:05;25.80;89.40
39237;DHT22;36851;49.996;8.268;2022-07-09T15:03:32;25.90;89.20
39237;DHT22;36851;49.996;8.268;2022-07-09T15:05:59;26.00;89.10
39237;DHT22;36851;49.996;8.268;2022-07-09T15:08:27;26.00;89.00
39237;DHT22;36851;49.996;8.268;2022-07-09T15:10:54;26.00;88.90
39237;DHT22;36851;49.996;8.268;2022-07-09T15:13:22;26.10;88.80
39237;DHT22;36851;49.996;8.268;2022-07-09T15:15:49;26.10;88.70
39237;DHT22;36851;49.996;8.268;2022-07-09T15:18:16;26.10;88.60
39237;DHT22;36851;49.996;8.268;2022-07-09T15:20:43;26.20;88.60
39237;DHT22;36851;49.996;8.268;2022-07-09T15:23:11;26.20;88.60
39237;DHT22;36851;49.996;8.268;2022-07-09T15:25:38;26.20;88.60
39237;DHT22;36851;49.996;8.268;2022-07-09T15:28:05;26.20;88.60
39237;DHT22;36851;49.996;8.268;2022-07-09T15:30:32;26.10;88.40
39237;DHT22;36851;49.996;8.268;2022-07-09T15:33:00;26.00;88.20
39237;DHT22;36851;49.996;8.268;2022-07-09T15:35:27;26.00;87.50
39237;DHT22;36851;49.996;8.268;2022-07-09T15:37:55;25.90;86.40
39237;DHT22;36851;49.996;8.268;2022-07-09T15:40:22;25.90;85.30